createdAt,value
2023-02-25T00:01:40.853Z,70.13
2023-02-25T00:04:07.678Z,70.00
2023-02-25T00:06:34.456Z,70.07
2023-02-25T00:09:01.324Z,70.12
2023-02-25T00:11:28.252Z,70.20
2023-02-25T00:13:55.311Z,70.39
2023-02-25T00:16:25.058Z,70.27
2023-02-25T00:18:56.793Z,70.34
2023-02-25T00:21:24.709Z,70.23
2023-02-25T00:23:53.517Z,70.27
2023-02-25T00:26:20.827Z,70.25
2023-02-25T00:28:48.325Z,70.38
2023-02-25T00:31:19.838Z,70.50
2023-02-25T00:33:46.686Z,70.34
2023-02-25T00:36:21.908Z,70.68
2023-02-25T00:38:50.569Z,70.49
2023-02-25T00:41:22.109Z,70.47
2023-02-25T00:43:52.618Z,70.30
2023-02-25T00:46:20.814Z,70.70
2023-02-25T00:48:47.926Z,70.54
2023-02-25T00:51:22.288Z,70.42
2023-02-25T00:53:49.234Z,70.49
2023-02-25T00:56:17.440Z,70.67
2023-02-25T00:58:46.241Z,70.57
2023-02-25T01:01:24.238Z,70.49
2023-02-25T01:03:53.139Z,70.35
2023-02-25T01:06:20.726Z,70.53
2023-02-25T01:08:48.894Z,70.42
2023-02-25T01:11:24.603Z,70.45
2023-02-25T01:13:51.414Z,70.13
2023-02-25T01:16:21.990Z,70.06
2023-02-25T01:18:53.434Z,69.61
2023-02-25T01:21:29.295Z,69.86
2023-02-25T01:24:00.919Z,69.91
2023-02-25T01:26:31.115Z,69.52
2023-02-25T01:28:57.905Z,69.62
2023-02-25T01:31:29.132Z,69.92
2023-02-25T01:34:02.032Z,69.64
2023-02-25T01:36:31.015Z,69.74
2023-02-25T01:38:59.258Z,69.87
2023-02-25T01:41:28.793Z,69.69
2023-02-25T01:44:17.349Z,69.48
2023-02-25T01:46:47.887Z,69.38
2023-02-25T01:49:37.313Z,69.97
2023-02-25T01:52:15.811Z,69.71
2023-02-25T01:54:45.410Z,69.30
2023-02-25T01:57:16.183Z,69.31
2023-02-25T01:59:44.101Z,69.49
2023-02-25T02:02:20.191Z,69.25
2023-02-25T02:04:51.211Z,69.41
2023-02-25T02:07:19.730Z,69.52
2023-02-25T02:09:56.315Z,69.42
2023-02-25T02:12:36.459Z,69.66
2023-02-25T02:15:08.648Z,69.47
2023-02-25T02:17:50.756Z,69.49
2023-02-25T02:20:25.505Z,69.57
2023-02-25T02:23:52.173Z,69.82
2023-02-25T02:26:53.426Z,69.93
2023-02-25T02:29:57.100Z,70.01
2023-02-25T02:33:02.190Z,69.94
2023-02-25T02:35:57.088Z,70.23
2023-02-25T02:38:50.349Z,70.52
2023-02-25T02:41:45.006Z,70.44
2023-02-25T02:44:30.120Z,70.30
2023-02-25T02:47:08.049Z,70.19
2023-02-25T02:49:47.503Z,70.28
2023-02-25T02:52:23.010Z,70.29
2023-02-25T02:54:55.868Z,70.20
2023-02-25T02:57:24.397Z,70.09
2023-02-25T03:00:00.860Z,69.97
2023-02-25T03:02:35.712Z,70.02
2023-02-25T03:05:11.518Z,69.74
2023-02-25T03:07:44.765Z,69.60
2023-02-25T03:10:16.504Z,69.54
2023-02-25T03:12:43.276Z,69.27
2023-02-25T03:15:10.539Z,69.36
2023-02-25T03:17:45.271Z,69.61
2023-02-25T03:20:28.753Z,69.34
2023-02-25T03:22:59.106Z,69.24
2023-02-25T03:25:33.015Z,69.58
2023-02-25T03:28:23.617Z,69.13
2023-02-25T03:30:59.881Z,68.89
2023-02-25T03:34:09.109Z,69.39
2023-02-25T03:36:56.964Z,69.26
2023-02-25T03:39:29.776Z,69.22
2023-02-25T03:42:02.228Z,69.68
2023-02-25T03:44:35.851Z,69.32
2023-02-25T03:47:07.438Z,69.19
2023-02-25T03:49:43.199Z,69.33
2023-02-25T03:52:17.296Z,69.21
2023-02-25T03:54:44.010Z,69.61
2023-02-25T03:57:10.866Z,69.36
2023-02-25T03:59:37.642Z,69.55
2023-02-25T04:02:05.165Z,69.42
2023-02-25T04:04:32.058Z,69.31
2023-02-25T04:06:58.871Z,69.49
2023-02-25T04:09:25.652Z,69.11
2023-02-25T04:11:56.954Z,69.00
2023-02-25T04:14:24.501Z,69.11
2023-02-25T04:16:51.367Z,69.17
2023-02-25T04:19:18.655Z,69.26
2023-02-25T04:21:45.712Z,68.16
2023-02-25T04:24:12.460Z,68.60
2023-02-25T04:26:39.244Z,68.54
2023-02-25T04:29:06.353Z,67.69
2023-02-25T04:31:33.230Z,68.44
2023-02-25T04:34:00.194Z,68.45
2023-02-25T04:36:35.706Z,68.05
2023-02-25T04:39:05.273Z,67.81
2023-02-25T04:41:35.300Z,68.21
2023-02-25T04:44:05.861Z,67.94
2023-02-25T04:46:36.473Z,67.99
2023-02-25T04:49:03.841Z,67.87
2023-02-25T04:51:30.636Z,68.15
2023-02-25T04:53:57.528Z,68.08
2023-02-25T04:56:24.637Z,67.81
2023-02-25T04:58:51.714Z,67.59
2023-02-25T05:01:18.479Z,68.03
2023-02-25T05:03:45.317Z,67.94
2023-02-25T05:06:12.075Z,67.87
2023-02-25T05:08:38.878Z,67.92
2023-02-25T05:11:06.012Z,68.29
2023-02-25T05:13:33.073Z,67.66
2023-02-25T05:16:09.159Z,67.82
2023-02-25T05:18:43.818Z,67.72
2023-02-25T05:21:14.394Z,68.18
2023-02-25T05:23:43.265Z,67.13
2023-02-25T05:26:11.105Z,67.72
2023-02-25T05:28:38.565Z,67.34
2023-02-25T05:31:10.304Z,67.53
2023-02-25T05:33:39.822Z,67.37
2023-02-25T05:36:13.097Z,67.10
2023-02-25T05:38:40.701Z,67.48
2023-02-25T05:41:08.167Z,67.14
2023-02-25T05:43:36.348Z,67.35
2023-02-25T05:46:04.719Z,67.12
2023-02-25T05:48:32.612Z,66.98
2023-02-25T05:51:07.310Z,67.06
2023-02-25T05:53:34.588Z,66.91
2023-02-25T05:56:09.696Z,66.92
2023-02-25T05:58:37.023Z,67.06
2023-02-25T06:01:13.381Z,66.69
2023-02-25T06:03:41.993Z,66.55
2023-02-25T06:06:12.816Z,66.54
2023-02-25T06:08:39.922Z,66.49
2023-02-25T06:11:08.148Z,66.68
2023-02-25T06:13:35.511Z,66.07
2023-02-25T06:16:06.316Z,66.02
2023-02-25T06:18:36.675Z,66.16
2023-02-25T06:21:08.990Z,65.97
2023-02-25T06:23:38.461Z,66.21
2023-02-25T06:26:07.857Z,65.93
2023-02-25T06:28:35.840Z,65.88
2023-02-25T06:31:03.183Z,65.85
2023-02-25T06:33:33.162Z,65.83
2023-02-25T06:35:59.934Z,65.82
2023-02-25T06:38:26.911Z,65.44
2023-02-25T06:40:53.688Z,65.53
2023-02-25T06:43:20.455Z,66.06
2023-02-25T06:45:47.262Z,65.64
2023-02-25T06:48:14.182Z,65.73
2023-02-25T06:50:41.484Z,65.70
2023-02-25T06:53:09.238Z,65.08
2023-02-25T06:55:39.197Z,65.28
2023-02-25T06:58:06.217Z,65.52
2023-02-25T07:00:33.110Z,65.47
2023-02-25T07:03:02.928Z,65.58
2023-02-25T07:05:29.928Z,65.79
2023-02-25T07:07:56.701Z,65.64
2023-02-25T07:10:23.535Z,65.49
2023-02-25T07:12:52.130Z,65.53
2023-02-25T07:15:23.041Z,65.61
2023-02-25T07:17:49.827Z,65.74
2023-02-25T07:20:16.718Z,65.86
2023-02-25T07:22:43.828Z,65.71
2023-02-25T07:25:14.306Z,65.52
2023-02-25T07:27:44.646Z,65.43
2023-02-25T07:30:13.071Z,65.79
2023-02-25T07:32:43.469Z,65.45
2023-02-25T07:35:10.908Z,65.65
2023-02-25T07:37:38.252Z,65.45
2023-02-25T07:40:10.135Z,65.75
2023-02-25T07:42:36.895Z,65.46
2023-02-25T07:45:04.046Z,65.52
2023-02-25T07:47:30.799Z,65.52
2023-02-25T07:49:57.575Z,65.58
2023-02-25T07:52:24.338Z,65.48
2023-02-25T07:54:51.169Z,65.45
2023-02-25T07:57:17.923Z,65.59
2023-02-25T07:59:44.772Z,65.64
2023-02-25T08:02:12.365Z,65.58
2023-02-25T08:04:39.216Z,65.49
2023-02-25T08:07:07.187Z,65.80
2023-02-25T08:09:33.961Z,65.43
2023-02-25T08:12:00.718Z,66.06
2023-02-25T08:14:27.489Z,66.00
2023-02-25T08:16:57.464Z,65.80
2023-02-25T08:19:24.767Z,64.98
2023-02-25T08:21:51.581Z,64.48
2023-02-25T08:24:20.536Z,64.15
2023-02-25T08:26:48.105Z,62.98
2023-02-25T08:29:15.505Z,62.84
2023-02-25T08:31:42.551Z,63.51
2023-02-25T08:34:10.530Z,63.62
2023-02-25T08:36:37.349Z,63.26
2023-02-25T08:39:04.509Z,63.71
2023-02-25T08:41:32.027Z,63.07
2023-02-25T08:44:01.070Z,63.27
2023-02-25T08:46:31.265Z,63.46
2023-02-25T08:48:58.462Z,63.49
2023-02-25T08:51:33.834Z,63.48
2023-02-25T08:54:04.008Z,63.72
2023-02-25T08:56:31.260Z,63.79
2023-02-25T08:58:58.146Z,63.86
2023-02-25T09:01:25.314Z,62.65
2023-02-25T09:03:52.717Z,62.89
2023-02-25T09:06:28.821Z,62.87
2023-02-25T09:08:56.847Z,62.31
2023-02-25T09:11:25.232Z,62.96
2023-02-25T09:13:54.958Z,62.61
2023-02-25T09:16:21.942Z,63.02
2023-02-25T09:18:51.392Z,62.82
2023-02-25T09:21:19.540Z,62.73
2023-02-25T09:23:46.890Z,63.22
2023-02-25T09:26:14.282Z,62.83
2023-02-25T09:28:41.115Z,62.52
2023-02-25T09:31:08.024Z,62.71
2023-02-25T09:33:36.562Z,63.08
2023-02-25T09:36:13.679Z,62.73
2023-02-25T09:38:42.431Z,62.86
2023-02-25T09:41:57.081Z,63.13
2023-02-25T09:44:44.898Z,63.54
2023-02-25T09:47:50.597Z,63.05
2023-02-25T09:50:26.247Z,63.28
2023-02-25T09:53:07.516Z,62.81
2023-02-25T09:55:40.970Z,62.87
2023-02-25T09:58:46.722Z,63.16
2023-02-25T10:01:27.351Z,62.76
2023-02-25T10:04:28.167Z,62.90
2023-02-25T10:06:56.067Z,62.57
2023-02-25T10:09:52.617Z,62.24
2023-02-25T10:12:39.714Z,62.43
2023-02-25T10:15:57.036Z,62.38
2023-02-25T10:18:42.093Z,62.61
2023-02-25T10:21:56.851Z,63.07
2023-02-25T10:24:39.076Z,62.23
2023-02-25T10:27:32.702Z,62.93
2023-02-25T10:31:03.814Z,62.14
2023-02-25T10:33:37.039Z,61.50
2023-02-25T10:36:16.201Z,62.29
2023-02-25T10:38:49.805Z,60.63
2023-02-25T10:41:18.850Z,61.28
2023-02-25T10:43:45.796Z,61.14
2023-02-25T10:46:52.220Z,61.50
2023-02-25T10:49:26.220Z,61.29
2023-02-25T10:52:18.891Z,61.92
2023-02-25T10:54:49.140Z,61.45
2023-02-25T10:57:22.424Z,61.42
2023-02-25T11:00:17.485Z,61.38
2023-02-25T11:02:44.415Z,61.12
2023-02-25T11:05:41.316Z,58.47
2023-02-25T11:08:30.072Z,59.63
2023-02-25T11:11:06.548Z,59.32
2023-02-25T11:13:36.750Z,59.04
2023-02-25T11:16:09.328Z,58.27
2023-02-25T11:18:38.119Z,56.92
2023-02-25T11:21:13.418Z,57.64
2023-02-25T11:23:43.299Z,57.08
2023-02-25T11:26:18.277Z,57.41
2023-02-25T11:28:48.749Z,57.33
2023-02-25T11:31:21.047Z,57.17
2023-02-25T11:33:59.037Z,57.63
2023-02-25T11:36:33.077Z,57.66
2023-02-25T11:39:21.630Z,56.83
2023-02-25T11:41:51.695Z,58.18
2023-02-25T11:44:31.654Z,57.48
2023-02-25T11:47:15.384Z,57.62
2023-02-25T11:49:42.813Z,58.33
2023-02-25T11:52:17.411Z,58.48
2023-02-25T11:55:04.749Z,58.60
2023-02-25T11:58:22.911Z,58.70
2023-02-25T12:01:16.999Z,58.60
2023-02-25T12:03:49.496Z,58.55
2023-02-25T12:06:26.749Z,58.65
2023-02-25T12:09:20.235Z,57.07
2023-02-25T12:11:58.718Z,58.29
2023-02-25T12:14:54.174Z,58.61
2023-02-25T12:18:11.212Z,58.43
2023-02-25T12:20:58.757Z,58.85
2023-02-25T12:23:53.693Z,58.85
2023-02-25T12:27:10.265Z,58.28
2023-02-25T12:29:42.621Z,58.36
2023-02-25T12:32:55.877Z,58.68
2023-02-25T12:36:03.694Z,58.11
2023-02-25T12:39:07.637Z,58.66
2023-02-25T12:41:39.936Z,58.96
2023-02-25T12:45:00.495Z,59.60
2023-02-25T12:48:21.316Z,59.66
2023-02-25T12:51:27.601Z,59.98
2023-02-25T12:54:56.840Z,60.58
2023-02-25T12:58:00.786Z,60.29
2023-02-25T13:00:56.140Z,60.64
2023-02-25T13:03:56.786Z,59.32
2023-02-25T13:06:39.767Z,58.60
2023-02-25T13:09:37.812Z,57.68
2023-02-25T13:12:40.688Z,58.32
2023-02-25T13:15:16.621Z,58.65
2023-02-25T13:18:18.999Z,57.66
2023-02-25T13:20:52.047Z,58.12
2023-02-25T13:23:48.747Z,57.69
2023-02-25T13:26:32.484Z,56.30
2023-02-25T13:29:26.570Z,56.43
2023-02-25T13:32:26.766Z,56.51
2023-02-25T13:35:25.591Z,57.07
2023-02-25T13:38:24.273Z,57.01
2023-02-25T13:41:15.229Z,57.18
2023-02-25T13:44:21.615Z,56.76
2023-02-25T13:47:14.472Z,57.17
2023-02-25T13:50:24.457Z,56.64
2023-02-25T13:53:40.911Z,56.00
2023-02-25T13:56:38.179Z,56.39
2023-02-25T13:59:39.017Z,56.70
2023-02-25T14:02:41.845Z,56.09
2023-02-25T14:05:35.180Z,56.33
2023-02-25T14:08:27.006Z,56.01
2023-02-25T14:11:16.771Z,56.07
2023-02-25T14:14:18.233Z,56.30
2023-02-25T14:17:19.441Z,56.46
2023-02-25T14:20:44.069Z,56.77
2023-02-25T14:23:27.011Z,57.17
2023-02-25T14:26:38.880Z,57.61
2023-02-25T14:29:39.995Z,57.47
2023-02-25T14:32:24.994Z,57.23
2023-02-25T14:35:30.762Z,56.39
2023-02-25T14:38:15.829Z,56.55
2023-02-25T14:41:27.178Z,55.89
2023-02-25T14:44:00.642Z,55.49
2023-02-25T14:46:44.219Z,55.15
2023-02-25T14:49:34.007Z,55.14
2023-02-25T14:52:26.969Z,55.01
2023-02-25T14:55:58.534Z,54.97
2023-02-25T14:58:36.409Z,55.38
2023-02-25T15:01:12.453Z,55.15
2023-02-25T15:04:29.857Z,53.53
2023-02-25T15:07:12.977Z,53.30
2023-02-25T15:10:11.518Z,53.59
2023-02-25T15:13:00.442Z,53.62
2023-02-25T15:16:11.701Z,53.85
2023-02-25T15:19:31.924Z,53.37
2023-02-25T15:22:14.202Z,52.72
2023-02-25T15:24:42.293Z,52.85
2023-02-25T15:27:42.661Z,52.54
2023-02-25T15:30:23.474Z,53.04
2023-02-25T15:32:57.998Z,53.24
2023-02-25T15:35:36.917Z,53.32
2023-02-25T15:38:10.064Z,53.24
2023-02-25T15:40:44.909Z,52.58
2023-02-25T15:43:14.771Z,52.71
2023-02-25T15:45:42.930Z,52.87
2023-02-25T15:48:12.716Z,52.52
2023-02-25T15:50:42.446Z,51.94
2023-02-25T15:53:31.736Z,52.39
2023-02-25T15:56:26.371Z,52.29
2023-02-25T15:58:57.460Z,51.68
2023-02-25T16:01:29.123Z,51.71
2023-02-25T16:03:56.310Z,51.58
2023-02-25T16:06:29.173Z,51.65
2023-02-25T16:09:14.262Z,51.62
2023-02-25T16:11:47.427Z,51.53
2023-02-25T16:14:31.340Z,51.67
2023-02-25T16:17:03.250Z,51.81
2023-02-25T16:19:35.864Z,52.13
2023-02-25T16:22:24.766Z,52.05
2023-02-25T16:24:57.502Z,52.05
2023-02-25T16:27:46.647Z,52.14
2023-02-25T16:30:42.037Z,52.20
2023-02-25T16:33:37.756Z,52.25
2023-02-25T16:36:37.796Z,52.53
2023-02-25T16:39:13.661Z,51.99
2023-02-25T16:41:40.899Z,52.01
2023-02-25T16:44:08.589Z,52.29
2023-02-25T16:46:39.021Z,52.19
2023-02-25T16:49:15.264Z,52.61
2023-02-25T16:51:45.058Z,52.53
2023-02-25T16:54:22.524Z,52.46
2023-02-25T16:57:00.909Z,52.56
2023-02-25T16:59:36.110Z,52.47
2023-02-25T17:02:23.536Z,52.67
2023-02-25T17:04:53.381Z,52.62
2023-02-25T17:07:27.813Z,52.48
2023-02-25T17:10:02.847Z,52.71
2023-02-25T17:12:45.637Z,52.78
2023-02-25T17:15:30.012Z,52.96
2023-02-25T17:18:09.377Z,52.77
2023-02-25T17:20:36.697Z,52.75
2023-02-25T17:23:11.441Z,52.74
2023-02-25T17:25:48.484Z,52.75
2023-02-25T17:28:25.927Z,52.84
2023-02-25T17:31:04.364Z,52.97
2023-02-25T17:33:32.039Z,52.99
2023-02-25T17:36:10.236Z,53.32
2023-02-25T17:38:39.063Z,53.58
2023-02-25T17:41:06.136Z,53.63
2023-02-25T17:43:40.391Z,53.85
2023-02-25T17:46:29.144Z,53.87
2023-02-25T17:49:02.816Z,53.91
2023-02-25T17:51:34.356Z,54.47
2023-02-25T17:54:16.520Z,54.05
2023-02-25T17:56:43.324Z,54.41
2023-02-25T17:59:13.069Z,54.45
2023-02-25T18:01:53.448Z,54.81
2023-02-25T18:04:36.719Z,54.84
2023-02-25T18:07:32.381Z,55.29
2023-02-25T18:10:00.778Z,54.83
2023-02-25T18:12:37.872Z,54.89
2023-02-25T18:15:26.033Z,55.36
2023-02-25T18:18:01.428Z,55.45
2023-02-25T18:20:42.024Z,55.60
2023-02-25T18:23:14.867Z,55.93
2023-02-25T18:25:48.823Z,55.49
2023-02-25T18:28:21.993Z,55.93
2023-02-25T18:30:50.646Z,55.74
2023-02-25T18:33:18.485Z,56.26
2023-02-25T18:35:47.292Z,56.01
2023-02-25T18:38:19.691Z,55.88
2023-02-25T18:40:48.063Z,56.03
2023-02-25T18:43:17.522Z,56.38
2023-02-25T18:45:45.406Z,56.14
2023-02-25T18:48:13.135Z,56.64
2023-02-25T18:50:44.281Z,57.09
2023-02-25T18:53:21.532Z,56.60
2023-02-25T18:55:48.998Z,56.64
2023-02-25T18:58:17.891Z,57.03
2023-02-25T19:00:52.048Z,57.22
2023-02-25T19:03:41.274Z,57.14
2023-02-25T19:06:09.050Z,57.31
2023-02-25T19:08:35.843Z,57.36
2023-02-25T19:11:03.053Z,57.42
2023-02-25T19:13:37.425Z,57.57
2023-02-25T19:16:05.306Z,57.41
2023-02-25T19:18:32.142Z,57.09
2023-02-25T19:20:58.906Z,57.67
2023-02-25T19:23:25.749Z,57.59
2023-02-25T19:25:59.365Z,57.56
2023-02-25T19:28:26.623Z,57.85
2023-02-25T19:30:53.435Z,57.39
2023-02-25T19:33:20.237Z,58.11
2023-02-25T19:35:47.039Z,58.06
2023-02-25T19:38:18.229Z,58.17
2023-02-25T19:40:47.431Z,58.04
2023-02-25T19:43:17.883Z,57.89
2023-02-25T19:45:44.910Z,57.92
2023-02-25T19:48:11.689Z,57.99
2023-02-25T19:50:41.222Z,58.07
2023-02-25T19:53:08.434Z,58.24
2023-02-25T19:55:35.461Z,57.97
2023-02-25T19:58:02.322Z,58.62
2023-02-25T20:00:29.109Z,58.48
2023-02-25T20:02:56.238Z,58.46
2023-02-25T20:05:24.618Z,58.50
2023-02-25T20:07:51.792Z,58.66
2023-02-25T20:10:19.678Z,58.61
2023-02-25T20:12:47.488Z,58.54
2023-02-25T20:15:16.288Z,58.42
2023-02-25T20:17:45.208Z,59.40
2023-02-25T20:20:14.331Z,59.41
2023-02-25T20:22:42.213Z,59.30
2023-02-25T20:25:10.733Z,59.24
2023-02-25T20:27:39.648Z,59.52
2023-02-25T20:30:07.882Z,59.21
2023-02-25T20:32:34.822Z,59.57
2023-02-25T20:35:02.464Z,59.45
2023-02-25T20:37:34.882Z,58.76
2023-02-25T20:40:01.714Z,59.40
2023-02-25T20:42:31.056Z,59.65
2023-02-25T20:44:59.191Z,59.20
2023-02-25T20:47:35.098Z,59.62
2023-02-25T20:50:04.344Z,59.40
2023-02-25T20:52:31.287Z,59.57
2023-02-25T20:54:58.213Z,59.33
2023-02-25T20:57:26.989Z,59.41
2023-02-25T20:59:54.486Z,59.35
2023-02-25T21:02:21.761Z,59.08
2023-02-25T21:04:48.998Z,59.38
2023-02-25T21:07:16.038Z,59.34
2023-02-25T21:09:42.816Z,59.58
2023-02-25T21:12:10.006Z,59.55
2023-02-25T21:14:36.787Z,59.59
2023-02-25T21:17:05.969Z,59.16
2023-02-25T21:19:32.835Z,59.09
2023-02-25T21:21:59.601Z,59.33
2023-02-25T21:24:29.318Z,59.63
2023-02-25T21:26:56.404Z,59.90
2023-02-25T21:29:23.167Z,59.32
2023-02-25T21:31:49.967Z,59.78
2023-02-25T21:34:16.917Z,59.55
2023-02-25T21:36:43.803Z,59.63
2023-02-25T21:39:12.428Z,59.46
2023-02-25T21:41:44.234Z,59.25
2023-02-25T21:44:12.691Z,59.40
2023-02-25T21:46:40.233Z,59.31
2023-02-25T21:49:07.074Z,59.33
2023-02-25T21:51:33.991Z,59.11
2023-02-25T21:54:02.226Z,59.66
2023-02-25T21:56:30.867Z,59.24
2023-02-25T21:59:01.160Z,59.68
2023-02-25T22:01:35.906Z,59.42
2023-02-25T22:04:03.681Z,59.37
2023-02-25T22:06:30.959Z,59.52
2023-02-25T22:08:58.041Z,59.49
2023-02-25T22:11:32.461Z,59.34
2023-02-25T22:14:01.312Z,59.11
2023-02-25T22:16:29.156Z,59.41
2023-02-25T22:18:57.171Z,59.56
2023-02-25T22:21:29.920Z,59.42
2023-02-25T22:24:00.837Z,59.35
2023-02-25T22:26:31.594Z,59.71
2023-02-25T22:29:06.191Z,59.80
2023-02-25T22:31:34.826Z,59.46
2023-02-25T22:34:02.688Z,59.67
2023-02-25T22:36:29.780Z,59.15
2023-02-25T22:38:56.767Z,60.03
2023-02-25T22:41:29.278Z,59.38
2023-02-25T22:43:57.939Z,59.48
2023-02-25T22:46:29.203Z,60.26
2023-02-25T22:48:57.085Z,59.57
2023-02-25T22:51:30.550Z,59.75
2023-02-25T22:53:58.233Z,60.23
2023-02-25T22:56:26.220Z,60.17
2023-02-25T22:58:53.521Z,60.29
2023-02-25T23:01:22.800Z,60.47
2023-02-25T23:03:50.827Z,60.28
2023-02-25T23:06:20.258Z,60.25
2023-02-25T23:08:47.238Z,60.52
2023-02-25T23:11:26.360Z,60.14
2023-02-25T23:13:58.362Z,60.72
2023-02-25T23:16:33.510Z,60.55
2023-02-25T23:19:04.524Z,60.61
2023-02-25T23:21:32.619Z,60.96
2023-02-25T23:24:01.767Z,60.85
2023-02-25T23:26:33.554Z,60.28
2023-02-25T23:29:03.873Z,60.89
2023-02-25T23:31:34.636Z,60.94
2023-02-25T23:34:14.670Z,60.48
2023-02-25T23:36:43.477Z,60.73
2023-02-25T23:39:12.504Z,60.93
2023-02-25T23:41:39.404Z,61.52
2023-02-25T23:44:09.093Z,61.06
2023-02-25T23:46:37.167Z,61.71
2023-02-25T23:49:07.173Z,61.45
2023-02-25T23:51:35.281Z,61.45
2023-02-25T23:54:05.103Z,61.99
2023-02-25T23:56:33.646Z,61.56
2023-02-25T23:59:00.425Z,61.54
